createdAt,value
2023-01-24T00:01:02.189Z,12.23
2023-01-24T00:03:29.171Z,13.17
2023-01-24T00:05:55.940Z,13.27
2023-01-24T00:08:25.332Z,12.00
2023-01-24T00:11:11.959Z,13.00
2023-01-24T00:13:39.776Z,11.37
2023-01-24T00:16:17.506Z,12.63
2023-01-24T00:18:45.168Z,12.93
2023-01-24T00:21:16.284Z,13.30
2023-01-24T00:23:47.188Z,13.07
2023-01-24T00:26:15.652Z,13.47
2023-01-24T00:28:43.062Z,12.80
2023-01-24T00:31:09.974Z,12.07
2023-01-24T00:33:36.830Z,10.43
2023-01-24T00:36:05.205Z,12.73
2023-01-24T00:38:32.420Z,12.60
2023-01-24T00:41:00.184Z,11.27
2023-01-24T00:43:29.835Z,11.90
2023-01-24T00:45:57.441Z,10.57
2023-01-24T00:48:24.416Z,12.23
2023-01-24T00:50:51.197Z,10.07
2023-01-24T00:53:20.423Z,9.57
2023-01-24T00:55:49.035Z,13.23
2023-01-24T00:58:15.806Z,12.00
2023-01-24T01:00:42.642Z,14.33
2023-01-24T01:03:15.311Z,14.97
2023-01-24T01:05:42.799Z,13.57
2023-01-24T01:08:10.844Z,13.13
2023-01-24T01:10:38.234Z,16.47
2023-01-24T01:13:05.979Z,11.73
2023-01-24T01:15:33.251Z,12.67
2023-01-24T01:18:00.333Z,12.50
2023-01-24T01:20:29.907Z,10.73
2023-01-24T01:22:56.796Z,11.83
2023-01-24T01:25:23.936Z,10.33
2023-01-24T01:27:50.846Z,12.43
2023-01-24T01:30:18.068Z,13.40
2023-01-24T01:32:44.875Z,11.40
2023-01-24T01:35:11.875Z,13.10
2023-01-24T01:37:38.638Z,11.37
2023-01-24T01:40:06.433Z,12.97
2023-01-24T01:42:55.002Z,12.80
2023-01-24T01:45:51.896Z,11.63
2023-01-24T01:48:40.077Z,14.03
2023-01-24T01:51:31.959Z,12.13
2023-01-24T01:54:07.275Z,13.63
2023-01-24T01:57:00.266Z,12.90
2023-01-24T01:59:36.360Z,11.70
2023-01-24T02:02:07.050Z,11.23
2023-01-24T02:04:38.180Z,15.27
2023-01-24T02:07:27.154Z,12.57
2023-01-24T02:09:56.150Z,10.83
2023-01-24T02:12:29.386Z,10.80
2023-01-24T02:15:20.779Z,12.00
2023-01-24T02:17:48.004Z,10.30
2023-01-24T02:20:44.550Z,10.33
2023-01-24T02:23:54.715Z,12.07
2023-01-24T02:26:25.178Z,10.93
2023-01-24T02:29:00.591Z,10.87
2023-01-24T02:31:27.666Z,8.63
2023-01-24T02:33:54.585Z,9.07
2023-01-24T02:36:29.781Z,9.77
2023-01-24T02:39:14.798Z,8.47
2023-01-24T02:41:53.361Z,10.70
2023-01-24T02:44:52.199Z,7.40
2023-01-24T02:47:19.042Z,8.07
2023-01-24T02:49:45.756Z,8.10
2023-01-24T02:52:31.222Z,7.57
2023-01-24T02:54:57.904Z,7.60
2023-01-24T02:57:43.099Z,8.00
2023-01-24T03:00:12.124Z,8.90
2023-01-24T03:02:38.987Z,10.53
2023-01-24T03:05:06.327Z,10.07
2023-01-24T03:07:42.241Z,7.93
2023-01-24T03:10:11.617Z,7.43
2023-01-24T03:12:57.467Z,7.73
2023-01-24T03:15:43.697Z,7.13
2023-01-24T03:18:29.798Z,7.70
2023-01-24T03:21:15.295Z,7.60
2023-01-24T03:24:00.662Z,7.90
2023-01-24T03:26:45.918Z,7.97
2023-01-24T03:29:31.346Z,10.90
2023-01-24T03:32:16.809Z,8.23
2023-01-24T03:34:52.294Z,9.77
2023-01-24T03:37:41.580Z,7.13
2023-01-24T03:40:14.154Z,7.03
2023-01-24T03:42:48.808Z,7.17
2023-01-24T03:45:24.990Z,9.37
2023-01-24T03:47:59.731Z,6.90
2023-01-24T03:50:51.749Z,7.20
2023-01-24T03:53:21.696Z,6.07
2023-01-24T03:55:54.959Z,5.73
2023-01-24T03:58:22.650Z,6.50
2023-01-24T04:00:49.504Z,5.93
2023-01-24T04:03:16.340Z,5.83
2023-01-24T04:05:49.433Z,7.77
2023-01-24T04:08:18.330Z,5.17
2023-01-24T04:10:45.079Z,5.53
2023-01-24T04:13:12.486Z,4.90
2023-01-24T04:15:39.757Z,5.80
2023-01-24T04:18:07.682Z,5.03
2023-01-24T04:20:37.264Z,5.37
2023-01-24T04:23:07.237Z,5.90
2023-01-24T04:25:34.925Z,6.23
2023-01-24T04:28:02.372Z,5.63
2023-01-24T04:30:29.253Z,6.10
2023-01-24T04:32:56.024Z,5.17
2023-01-24T04:35:29.959Z,5.60
2023-01-24T04:38:02.345Z,5.80
2023-01-24T04:40:29.354Z,5.23
2023-01-24T04:42:57.994Z,5.77
2023-01-24T04:45:25.926Z,5.40
2023-01-24T04:47:55.034Z,6.13
2023-01-24T04:50:22.521Z,5.93
2023-01-24T04:52:49.261Z,5.30
2023-01-24T04:55:16.248Z,5.17
2023-01-24T04:57:43.943Z,6.23
2023-01-24T05:00:11.774Z,5.57
2023-01-24T05:02:38.962Z,6.60
2023-01-24T05:05:07.269Z,7.00
2023-01-24T05:07:34.113Z,7.13
2023-01-24T05:10:00.888Z,5.53
2023-01-24T05:12:27.672Z,8.73
2023-01-24T05:14:54.395Z,5.77
2023-01-24T05:17:21.089Z,6.17
2023-01-24T05:19:47.798Z,5.80
2023-01-24T05:22:14.664Z,4.97
2023-01-24T05:24:41.425Z,5.30
2023-01-24T05:27:09.182Z,6.13
2023-01-24T05:29:36.126Z,5.47
2023-01-24T05:32:03.122Z,5.67
2023-01-24T05:34:29.900Z,5.07
2023-01-24T05:36:56.600Z,6.57
2023-01-24T05:39:23.383Z,5.50
2023-01-24T05:41:50.969Z,5.43
2023-01-24T05:44:19.989Z,5.37
2023-01-24T05:46:49.106Z,5.10
2023-01-24T05:49:15.847Z,8.97
2023-01-24T05:51:42.616Z,6.10
2023-01-24T05:54:09.368Z,6.40
2023-01-24T05:56:36.121Z,5.33
2023-01-24T05:59:02.870Z,4.80
2023-01-24T06:01:29.670Z,5.47
2023-01-24T06:03:56.457Z,4.47
2023-01-24T06:06:25.431Z,5.13
2023-01-24T06:08:53.041Z,5.13
2023-01-24T06:11:27.433Z,5.27
2023-01-24T06:13:57.510Z,4.33
2023-01-24T06:16:26.664Z,5.53
2023-01-24T06:18:55.432Z,7.40
2023-01-24T06:21:31.094Z,5.30
2023-01-24T06:23:58.085Z,5.33
2023-01-24T06:26:25.271Z,4.47
2023-01-24T06:28:53.362Z,5.77
2023-01-24T06:31:44.852Z,5.13
2023-01-24T06:34:38.375Z,4.50
2023-01-24T06:37:30.627Z,4.40
2023-01-24T06:39:58.155Z,5.07
2023-01-24T06:42:26.601Z,5.23
2023-01-24T06:44:53.490Z,5.57
2023-01-24T06:47:20.290Z,4.80
2023-01-24T06:49:47.043Z,4.50
2023-01-24T06:52:14.351Z,4.57
2023-01-24T06:54:41.191Z,4.70
2023-01-24T06:57:08.106Z,5.23
2023-01-24T06:59:34.886Z,4.77
2023-01-24T07:02:01.975Z,5.07
2023-01-24T07:04:28.748Z,4.57
2023-01-24T07:06:55.556Z,5.00
2023-01-24T07:09:24.184Z,4.83
2023-01-24T07:11:53.580Z,4.80
2023-01-24T07:14:20.959Z,4.70
2023-01-24T07:16:50.555Z,4.07
2023-01-24T07:19:25.816Z,4.53
2023-01-24T07:21:54.988Z,4.73
2023-01-24T07:24:28.510Z,4.93
2023-01-24T07:27:01.869Z,4.07
2023-01-24T07:29:28.611Z,4.50
2023-01-24T07:31:55.410Z,5.43
2023-01-24T07:34:22.526Z,5.87
2023-01-24T07:36:49.511Z,4.63
2023-01-24T07:39:16.780Z,5.50
2023-01-24T07:41:44.937Z,5.00
2023-01-24T07:44:12.426Z,4.90
2023-01-24T07:46:39.218Z,4.17
2023-01-24T07:49:05.995Z,4.30
2023-01-24T07:51:32.776Z,4.97
2023-01-24T07:53:59.476Z,3.93
2023-01-24T07:56:26.650Z,4.30
2023-01-24T07:58:54.620Z,3.97
2023-01-24T08:01:24.810Z,4.53
2023-01-24T08:03:54.693Z,4.70
2023-01-24T08:06:21.499Z,4.87
2023-01-24T08:08:48.222Z,5.00
2023-01-24T08:11:18.125Z,4.90
2023-01-24T08:13:45.640Z,4.77
2023-01-24T08:16:12.702Z,4.20
2023-01-24T08:18:41.511Z,4.50
2023-01-24T08:21:08.852Z,6.43
2023-01-24T08:23:35.636Z,4.43
2023-01-24T08:26:03.932Z,4.70
2023-01-24T08:28:32.056Z,4.43
2023-01-24T08:30:59.430Z,4.63
2023-01-24T08:33:26.737Z,4.23
2023-01-24T08:35:53.652Z,4.33
2023-01-24T08:38:20.459Z,5.20
2023-01-24T08:40:50.590Z,4.97
2023-01-24T08:43:18.349Z,4.70
2023-01-24T08:45:45.704Z,4.63
2023-01-24T08:48:12.651Z,4.87
2023-01-24T08:50:39.393Z,5.13
2023-01-24T08:53:06.152Z,5.10
2023-01-24T08:55:33.417Z,4.63
2023-01-24T08:58:05.043Z,4.30
2023-01-24T09:00:33.246Z,4.93
2023-01-24T09:03:01.626Z,7.50
2023-01-24T09:05:30.279Z,4.90
2023-01-24T09:07:58.016Z,4.90
2023-01-24T09:10:24.788Z,5.40
2023-01-24T09:12:52.103Z,5.30
2023-01-24T09:15:18.923Z,5.43
2023-01-24T09:17:45.730Z,5.23
2023-01-24T09:20:13.456Z,8.43
2023-01-24T09:22:40.743Z,5.00
2023-01-24T09:25:09.143Z,5.17
2023-01-24T09:27:37.620Z,4.47
2023-01-24T09:30:06.104Z,4.77
2023-01-24T09:32:32.932Z,5.37
2023-01-24T09:34:59.686Z,5.47
2023-01-24T09:37:27.462Z,5.07
2023-01-24T09:39:56.963Z,5.50
2023-01-24T09:42:41.974Z,4.77
2023-01-24T09:45:16.729Z,5.93
2023-01-24T09:47:51.311Z,5.73
2023-01-24T09:50:26.713Z,4.87
2023-01-24T09:52:57.818Z,5.40
2023-01-24T09:55:35.622Z,5.53
2023-01-24T09:58:02.407Z,7.47
2023-01-24T10:00:42.207Z,5.17
2023-01-24T10:03:20.616Z,6.43
2023-01-24T10:05:54.305Z,5.17
2023-01-24T10:08:45.796Z,6.10
2023-01-24T10:11:36.028Z,5.30
2023-01-24T10:14:38.302Z,5.27
2023-01-24T10:17:40.175Z,5.03
2023-01-24T10:20:30.983Z,5.33
2023-01-24T10:23:16.362Z,5.33
2023-01-24T10:25:59.431Z,5.03
2023-01-24T10:28:39.433Z,5.13
2023-01-24T10:31:38.216Z,5.07
2023-01-24T10:34:22.697Z,5.60
2023-01-24T10:37:03.874Z,5.90
2023-01-24T10:39:30.598Z,5.03
2023-01-24T10:41:57.395Z,4.97
2023-01-24T10:44:40.089Z,5.37
2023-01-24T10:47:51.317Z,5.00
2023-01-24T10:50:19.524Z,5.63
2023-01-24T10:52:49.632Z,5.00
2023-01-24T10:55:38.895Z,5.17
2023-01-24T10:58:55.868Z,4.70
2023-01-24T11:01:37.514Z,4.70
2023-01-24T11:04:29.882Z,4.40
2023-01-24T11:06:57.481Z,5.07
2023-01-24T11:09:32.168Z,5.00
2023-01-24T11:12:00.645Z,5.93
2023-01-24T11:14:32.831Z,5.13
2023-01-24T11:17:01.090Z,5.03
2023-01-24T11:19:32.306Z,5.53
2023-01-24T11:22:26.297Z,5.30
2023-01-24T11:25:00.515Z,4.80
2023-01-24T11:27:27.802Z,8.90
2023-01-24T11:30:21.606Z,5.30
2023-01-24T11:33:20.450Z,6.10
2023-01-24T11:35:55.788Z,5.37
2023-01-24T11:38:42.796Z,4.97
2023-01-24T11:41:25.629Z,5.67
2023-01-24T11:44:21.247Z,5.27
2023-01-24T11:47:16.221Z,9.23
2023-01-24T11:50:22.161Z,6.47
2023-01-24T11:53:17.955Z,6.20
2023-01-24T11:56:05.215Z,5.57
2023-01-24T11:59:05.763Z,5.93
2023-01-24T12:02:15.346Z,5.63
2023-01-24T12:05:20.949Z,5.50
2023-01-24T12:08:21.950Z,6.37
2023-01-24T12:11:42.222Z,7.57
2023-01-24T12:14:47.765Z,7.57
2023-01-24T12:17:30.270Z,5.87
2023-01-24T12:20:31.027Z,5.77
2023-01-24T12:23:11.962Z,6.77
2023-01-24T12:25:46.179Z,5.90
2023-01-24T12:28:46.331Z,5.50
2023-01-24T12:31:25.653Z,5.63
2023-01-24T12:34:04.711Z,7.17
2023-01-24T12:36:48.155Z,6.10
2023-01-24T12:39:26.389Z,8.23
2023-01-24T12:42:10.657Z,6.37
2023-01-24T12:45:08.054Z,6.90
2023-01-24T12:48:17.911Z,5.97
2023-01-24T12:50:59.870Z,5.87
2023-01-24T12:53:53.079Z,6.13
2023-01-24T12:56:37.050Z,6.57
2023-01-24T12:59:04.447Z,6.73
2023-01-24T13:02:12.085Z,6.60
2023-01-24T13:05:13.780Z,6.73
2023-01-24T13:08:08.682Z,6.53
2023-01-24T13:10:51.526Z,7.90
2023-01-24T13:13:29.146Z,7.10
2023-01-24T13:16:32.721Z,9.07
2023-01-24T13:19:44.123Z,7.00
2023-01-24T13:22:35.076Z,6.80
2023-01-24T13:25:45.327Z,5.67
2023-01-24T13:28:44.260Z,6.63
2023-01-24T13:31:30.618Z,7.20
2023-01-24T13:34:04.270Z,6.20
2023-01-24T13:36:37.742Z,6.73
2023-01-24T13:39:15.304Z,6.87
2023-01-24T13:41:42.160Z,6.90
2023-01-24T13:44:30.430Z,6.07
2023-01-24T13:47:00.554Z,7.23
2023-01-24T13:49:30.020Z,7.70
2023-01-24T13:51:59.104Z,7.20
2023-01-24T13:54:41.580Z,8.77
2023-01-24T13:57:20.043Z,6.60
2023-01-24T14:00:03.976Z,6.50
2023-01-24T14:02:42.682Z,7.53
2023-01-24T14:05:34.314Z,6.17
2023-01-24T14:08:14.841Z,6.43
2023-01-24T14:10:54.163Z,6.53
2023-01-24T14:13:48.634Z,7.37
2023-01-24T14:16:38.288Z,8.03
2023-01-24T14:19:18.442Z,5.90
2023-01-24T14:21:56.234Z,7.10
2023-01-24T14:24:32.879Z,6.97
2023-01-24T14:27:20.099Z,6.80
2023-01-24T14:29:51.359Z,8.53
2023-01-24T14:32:50.902Z,7.67
2023-01-24T14:35:26.024Z,7.57
2023-01-24T14:37:53.252Z,6.60
2023-01-24T14:40:27.997Z,6.90
2023-01-24T14:43:08.453Z,6.90
2023-01-24T14:45:35.624Z,6.20
2023-01-24T14:48:11.046Z,6.63
2023-01-24T14:50:39.494Z,6.83
2023-01-24T14:53:31.238Z,6.80
2023-01-24T14:56:16.049Z,7.43
2023-01-24T14:58:44.321Z,7.33
2023-01-24T15:01:30.099Z,6.27
2023-01-24T15:03:58.196Z,8.17
2023-01-24T15:06:28.092Z,7.30
2023-01-24T15:08:58.221Z,8.70
2023-01-24T15:11:30.946Z,9.70
2023-01-24T15:14:03.382Z,7.90
2023-01-24T15:16:47.242Z,10.37
2023-01-24T15:19:26.316Z,8.70
2023-01-24T15:21:57.210Z,10.63
2023-01-24T15:24:25.539Z,8.80
2023-01-24T15:26:53.658Z,6.70
2023-01-24T15:29:39.844Z,10.47
2023-01-24T15:32:39.055Z,8.03
2023-01-24T15:35:32.723Z,8.33
2023-01-24T15:38:30.241Z,8.77
2023-01-24T15:41:19.907Z,8.40
2023-01-24T15:44:08.221Z,8.27
2023-01-24T15:47:04.093Z,8.20
2023-01-24T15:49:36.550Z,10.07
2023-01-24T15:52:12.782Z,9.60
2023-01-24T15:54:43.432Z,10.23
2023-01-24T15:57:27.542Z,11.17
2023-01-24T16:00:04.848Z,8.07
2023-01-24T16:02:32.086Z,8.47
2023-01-24T16:04:58.995Z,7.67
2023-01-24T16:07:25.832Z,8.60
2023-01-24T16:09:55.914Z,8.80
2023-01-24T16:12:24.932Z,9.47
2023-01-24T16:15:08.216Z,9.53
2023-01-24T16:17:36.290Z,7.80
2023-01-24T16:20:05.980Z,8.47
2023-01-24T16:22:34.237Z,10.67
2023-01-24T16:25:00.993Z,9.03
2023-01-24T16:27:32.561Z,8.07
2023-01-24T16:29:59.280Z,11.13
2023-01-24T16:32:27.401Z,8.73
2023-01-24T16:34:54.135Z,8.63
2023-01-24T16:37:23.432Z,8.00
2023-01-24T16:39:50.457Z,8.70
2023-01-24T16:42:19.501Z,8.70
2023-01-24T16:45:00.925Z,10.07
2023-01-24T16:47:28.775Z,8.70
2023-01-24T16:49:57.238Z,8.40
2023-01-24T16:52:26.834Z,10.77
2023-01-24T16:54:53.748Z,8.13
2023-01-24T16:57:20.597Z,8.73
2023-01-24T16:59:47.488Z,8.87
2023-01-24T17:02:15.251Z,8.77
2023-01-24T17:04:42.023Z,10.60
2023-01-24T17:07:08.840Z,8.40
2023-01-24T17:09:36.167Z,8.80
2023-01-24T17:12:13.724Z,10.17
2023-01-24T17:14:43.612Z,11.13
2023-01-24T17:17:10.364Z,9.60
2023-01-24T17:19:38.125Z,9.17
2023-01-24T17:22:06.912Z,8.57
2023-01-24T17:24:34.857Z,10.83
2023-01-24T17:27:01.906Z,9.73
2023-01-24T17:29:29.123Z,10.43
2023-01-24T17:31:57.737Z,12.00
2023-01-24T17:34:25.092Z,11.03
2023-01-24T17:36:53.762Z,10.43
2023-01-24T17:39:20.824Z,10.53
2023-01-24T17:41:47.619Z,12.23
2023-01-24T17:44:17.130Z,11.43
2023-01-24T17:46:44.256Z,9.43
2023-01-24T17:49:11.049Z,9.83
2023-01-24T17:51:37.931Z,12.03
2023-01-24T17:54:05.500Z,9.90
2023-01-24T17:56:32.790Z,10.33
2023-01-24T17:59:00.366Z,11.27
2023-01-24T18:01:27.522Z,12.37
2023-01-24T18:03:54.694Z,10.43
2023-01-24T18:06:21.945Z,10.13
2023-01-24T18:08:49.651Z,11.07
2023-01-24T18:11:19.269Z,10.03
2023-01-24T18:13:46.816Z,11.60
2023-01-24T18:16:20.872Z,14.23
2023-01-24T18:18:48.583Z,14.33
2023-01-24T18:21:23.580Z,13.37
2023-01-24T18:23:56.608Z,11.20
2023-01-24T18:26:25.972Z,9.50
2023-01-24T18:28:53.846Z,10.97
2023-01-24T18:31:20.887Z,12.53
2023-01-24T18:33:47.634Z,14.57
2023-01-24T18:36:19.195Z,13.87
2023-01-24T18:38:46.912Z,10.50
2023-01-24T18:41:14.843Z,12.40
2023-01-24T18:43:41.982Z,15.40
2023-01-24T18:46:12.505Z,13.00
2023-01-24T18:48:42.307Z,10.37
2023-01-24T18:51:18.907Z,11.00
2023-01-24T18:53:48.479Z,11.30
2023-01-24T18:56:17.699Z,14.13
2023-01-24T18:58:45.466Z,11.13
2023-01-24T19:01:20.486Z,12.07
2023-01-24T19:03:47.887Z,11.20
2023-01-24T19:06:15.235Z,14.13
2023-01-24T19:09:00.645Z,13.10
2023-01-24T19:11:34.234Z,13.90
2023-01-24T19:14:03.100Z,13.17
2023-01-24T19:16:34.310Z,14.17
2023-01-24T19:19:01.068Z,16.23
2023-01-24T19:21:31.626Z,14.53
2023-01-24T19:23:59.899Z,13.43
2023-01-24T19:26:27.388Z,13.47
2023-01-24T19:28:58.762Z,13.10
2023-01-24T19:31:27.873Z,11.33
2023-01-24T19:33:55.433Z,10.03
2023-01-24T19:36:24.288Z,12.67
2023-01-24T19:38:57.720Z,14.13
2023-01-24T19:41:26.881Z,15.93
2023-01-24T19:46:40.950Z,14.17
2023-01-24T19:49:11.791Z,11.90
2023-01-24T19:51:38.483Z,12.40
2023-01-24T19:54:05.295Z,13.53
2023-01-24T19:56:35.056Z,12.17
2023-01-24T19:59:03.494Z,11.97
2023-01-24T20:01:31.668Z,12.17
2023-01-24T20:04:06.236Z,13.80
2023-01-24T20:06:37.751Z,13.90
2023-01-24T20:09:04.948Z,12.53
2023-01-24T20:11:32.754Z,12.93
2023-01-24T20:13:59.588Z,13.17
2023-01-24T20:16:29.332Z,13.60
2023-01-24T20:19:02.995Z,10.87
2023-01-24T20:21:33.594Z,10.57
2023-01-24T20:24:03.637Z,11.17
2023-01-24T20:26:31.178Z,11.63
2023-01-24T20:29:00.142Z,13.80
2023-01-24T20:31:28.147Z,15.43
2023-01-24T20:33:56.124Z,11.43
2023-01-24T20:36:23.051Z,12.37
2023-01-24T20:38:55.554Z,12.30
2023-01-24T20:41:23.852Z,12.13
2023-01-24T20:43:53.876Z,14.80
2023-01-24T20:46:25.001Z,15.63
2023-01-24T20:48:56.468Z,12.87
2023-01-24T20:51:29.122Z,12.50
2023-01-24T20:53:58.737Z,12.40
2023-01-24T20:56:27.002Z,13.30
2023-01-24T20:58:57.563Z,15.80
2023-01-24T21:01:27.288Z,14.97
2023-01-24T21:04:03.690Z,16.00
2023-01-24T21:06:35.039Z,19.60
2023-01-24T21:09:03.101Z,16.57
2023-01-24T21:11:32.899Z,16.03
2023-01-24T21:14:02.804Z,15.13
2023-01-24T21:16:32.721Z,16.67
2023-01-24T21:19:04.780Z,14.77
2023-01-24T21:21:34.974Z,17.60
2023-01-24T21:24:15.119Z,14.10
2023-01-24T21:26:47.197Z,18.27
2023-01-24T21:29:14.650Z,18.83
2023-01-24T21:31:41.456Z,19.53
2023-01-24T21:34:09.065Z,16.93
2023-01-24T21:36:37.628Z,14.60
2023-01-24T21:39:07.259Z,17.13
2023-01-24T21:41:52.613Z,20.77
2023-01-24T21:44:19.399Z,18.67
2023-01-24T21:46:46.515Z,21.40
2023-01-24T21:49:13.792Z,17.47
2023-01-24T21:52:00.691Z,16.83
2023-01-24T21:54:34.008Z,22.23
2023-01-24T21:57:32.873Z,18.77
2023-01-24T22:00:04.396Z,18.63
2023-01-24T22:02:32.721Z,23.70
2023-01-24T22:05:00.829Z,21.20
2023-01-24T22:07:30.583Z,22.13
2023-01-24T22:10:00.232Z,15.87
2023-01-24T22:12:28.895Z,17.53
2023-01-24T22:14:56.192Z,14.20
2023-01-24T22:17:25.147Z,14.93
2023-01-24T22:19:54.418Z,15.43
2023-01-24T22:23:06.981Z,15.40
2023-01-24T22:26:05.285Z,14.60
2023-01-24T22:28:32.445Z,15.27
2023-01-24T22:30:59.656Z,18.83
2023-01-24T22:33:26.787Z,15.40
2023-01-24T22:35:58.139Z,19.03
2023-01-24T22:38:26.858Z,17.00
2023-01-24T22:40:54.413Z,21.10
2023-01-24T22:43:21.162Z,22.07
2023-01-24T22:45:48.172Z,21.67
2023-01-24T22:48:16.444Z,21.97
2023-01-24T22:50:45.034Z,17.80
2023-01-24T22:53:12.527Z,19.17
2023-01-24T22:55:41.057Z,18.20
2023-01-24T22:58:08.218Z,24.07
2023-01-24T23:00:35.018Z,18.73
2023-01-24T23:03:01.772Z,16.50
2023-01-24T23:05:28.514Z,16.80
2023-01-24T23:07:55.375Z,17.13
2023-01-24T23:10:22.275Z,16.77
2023-01-24T23:13:07.583Z,17.17
2023-01-24T23:15:52.932Z,15.40
2023-01-24T23:18:44.302Z,11.50
2023-01-24T23:21:29.899Z,19.07
2023-01-24T23:23:57.461Z,15.13
2023-01-24T23:26:24.252Z,17.57
2023-01-24T23:29:27.415Z,16.13
2023-01-24T23:31:54.762Z,13.53
2023-01-24T23:34:36.510Z,13.40
2023-01-24T23:37:03.210Z,15.73
2023-01-24T23:39:30.097Z,13.63
2023-01-24T23:41:56.872Z,14.80
2023-01-24T23:44:23.751Z,13.83
2023-01-24T23:46:50.457Z,17.73
2023-01-24T23:49:17.151Z,14.87
2023-01-24T23:51:43.891Z,16.47
2023-01-24T23:54:10.780Z,17.87
2023-01-24T23:56:37.495Z,14.20
2023-01-24T23:59:04.245Z,15.40
